Time;durP1;ratioP1;P1;durP2;ratioP2;P2;SDS_P1;SDS_P2;PMS_P1;PMS_P2;Temp;Humidity;BMP_temperature;BMP_pressure;BME280_temperature;BME280_humidity;BME280_pressure;Samples;Min_cycle;Max_cycle;Signal;HPM_P1;HPM_P2
2021/11/25 19:00:06;;;;;;;44.00;29.45;;;10.60;99.90;;;;;;6212351;22;1411766;-87
2021/11/25 19:02:32;;;;;;;41.15;27.85;;;10.60;99.90;;;;;;6227239;23;20071;-84
2021/11/25 19:05:00;;;;;;;41.65;28.73;;;10.60;99.90;;;;;;6222352;23;20004;-81
2021/11/25 19:07:25;;;;;;;45.00;29.48;;;10.60;99.90;;;;;;6223860;23;20023;-82
2021/11/25 19:09:52;;;;;;;45.95;29.40;;;10.60;99.90;;;;;;6220210;23;20000;-77
2021/11/25 19:12:18;;;;;;;55.67;32.58;;;10.60;99.90;;;;;;6217276;23;20013;-77
2021/11/25 19:14:44;;;;;;;42.08;29.95;;;10.60;99.90;;;;;;6218784;23;20058;-77
2021/11/25 19:17:10;;;;;;;46.22;29.48;;;10.60;99.90;;;;;;6178471;23;20013;-78
2021/11/25 19:19:35;;;;;;;45.45;31.10;;;10.60;99.90;;;;;;6188896;23;20000;-78
2021/11/25 19:22:01;;;;;;;44.78;29.83;;;10.60;99.90;;;;;;6160898;23;20048;-78
2021/11/25 19:24:27;;;;;;;40.55;31.02;;;10.60;99.90;;;;;;6188226;23;20425;-78
2021/11/25 19:26:53;;;;;;;43.67;30.48;;;10.50;99.90;;;;;;6161751;23;20376;-79
2021/11/25 19:29:18;;;;;;;43.35;32.42;;;10.50;99.90;;;;;;6161909;23;20379;-78
2021/11/25 19:31:45;;;;;;;46.08;34.45;;;10.50;99.90;;;;;;6159302;23;20055;-78
2021/11/25 19:34:11;;;;;;;48.22;32.03;;;10.50;99.90;;;;;;6183442;23;20433;-79
2021/11/25 19:36:37;;;;;;;47.35;32.80;;;10.50;99.90;;;;;;6181213;23;20545;-79
2021/11/25 19:39:03;;;;;;;52.00;33.50;;;10.50;99.90;;;;;;6155463;23;20005;-79
2021/11/25 19:41:29;;;;;;;46.83;32.35;;;10.60;99.90;;;;;;6181378;23;20001;-78
2021/11/25 19:43:55;;;;;;;49.95;32.67;;;10.60;99.90;;;;;;6181655;23;20495;-83
2021/11/25 19:46:21;;;;;;;46.50;33.50;;;10.50;99.90;;;;;;6180995;23;20029;-78
2021/11/25 19:48:46;;;;;;;45.05;31.98;;;10.50;99.90;;;;;;6181825;23;20005;-77
2021/11/25 19:51:13;;;;;;;45.08;31.13;;;10.50;99.90;;;;;;6155352;23;20020;-78
2021/11/25 19:53:43;;;;;;;49.67;37.28;;;10.50;99.90;;;;;;6181997;23;20004;-77
2021/11/25 19:56:09;;;;;;;46.42;37.20;;;10.50;99.90;;;;;;6182000;23;20005;-80
2021/11/25 19:58:35;;;;;;;48.30;31.70;;;10.50;99.90;;;;;;6187764;23;20093;-79
2021/11/25 20:01:01;;;;;;;38.10;27.48;;;10.50;99.90;;;;;;6192230;23;20016;-85
2021/11/25 20:03:27;;;;;;;39.08;27.98;;;10.60;99.90;;;;;;6191071;23;20016;-87
2021/11/25 20:05:52;;;;;;;38.70;28.50;;;10.60;99.90;;;;;;6188206;23;20114;-80
2021/11/25 20:08:18;;;;;;;47.20;34.05;;;10.60;99.90;;;;;;6163806;23;20005;-81
2021/11/25 20:10:44;;;;;;;36.53;27.00;;;10.60;99.90;;;;;;6189201;23;19993;-83
2021/11/25 20:13:10;;;;;;;45.58;29.70;;;10.60;99.90;;;;;;6189148;23;20020;-84
2021/11/25 20:15:42;;;;;;;39.25;28.98;;;10.60;99.90;;;;;;6161893;23;20013;-80
2021/11/25 20:18:08;;;;;;;;;;;10.60;99.90;;;;;;6183728;23;19997;-79
2021/11/25 20:20:34;;;;;;;42.53;28.70;;;10.60;99.90;;;;;;6183246;23;19904;-79
2021/11/25 20:23:02;;;;;;;38.85;28.95;;;10.60;99.90;;;;;;6186554;23;20082;-83
2021/11/25 20:25:32;;;;;;;39.85;30.33;;;10.60;99.90;;;;;;6182801;23;20009;-80
2021/11/25 20:27:59;;;;;;;40.97;29.95;;;10.60;99.90;;;;;;6190437;23;20029;-81
2021/11/25 20:30:25;;;;;;;41.33;28.80;;;10.60;99.90;;;;;;6193110;23;20020;-84
2021/11/25 20:32:52;;;;;;;37.55;27.65;;;10.60;99.90;;;;;;6190814;23;20055;-82
2021/11/25 20:35:20;;;;;;;34.90;25.65;;;10.60;99.90;;;;;;6193228;23;19997;-82
2021/11/25 20:37:47;;;;;;;41.00;27.05;;;10.60;99.90;;;;;;6186849;23;20037;-84
2021/11/25 20:40:16;;;;;;;37.60;27.30;;;10.60;99.90;;;;;;6187286;23;20001;-80
2021/11/25 20:42:42;;;;;;;39.45;23.70;;;10.70;99.90;;;;;;6183200;23;20012;-80
2021/11/25 20:45:09;;;;;;;33.83;22.67;;;10.60;99.90;;;;;;6181448;23;20005;-80
2021/11/25 20:47:35;;;;;;;30.17;22.25;;;10.70;99.90;;;;;;6181065;23;20001;-79
2021/11/25 20:50:02;;;;;;;26.90;22.10;;;10.80;99.90;;;;;;6181170;23;20032;-79
2021/11/25 20:52:28;;;;;;;28.45;22.08;;;10.80;99.90;;;;;;6179324;23;20005;-77
2021/11/25 20:54:53;;;;;;;30.55;21.27;;;10.80;99.90;;;;;;6184819;23;20012;-85
2021/11/25 20:57:20;;;;;;;27.42;21.25;;;10.90;99.90;;;;;;6187379;23;20349;-82
2021/11/25 20:59:46;;;;;;;27.40;21.02;;;10.90;99.90;;;;;;6184541;23;20392;-85
2021/11/25 21:02:12;;;;;;;26.45;21.90;;;10.80;99.90;;;;;;6183875;23;20067;-84
2021/11/25 21:04:38;;;;;;;27.45;21.25;;;10.90;99.90;;;;;;6187223;23;20032;-85
2021/11/25 21:07:05;;;;;;;29.27;21.10;;;10.90;99.90;;;;;;6158095;23;20008;-83
2021/11/25 21:09:30;;;;;;;21.50;18.63;;;10.90;99.90;;;;;;6160005;23;20008;-82
2021/11/25 21:11:56;;;;;;;24.75;18.88;;;10.80;99.90;;;;;;6137098;23;20035;-81
2021/11/25 21:14:24;;;;;;;24.02;18.33;;;10.80;99.90;;;;;;6187120;23;19997;-80
2021/11/25 21:16:51;;;;;;;22.95;17.38;;;10.70;99.90;;;;;;6182818;23;20009;-82
2021/11/25 21:19:17;;;;;;;21.98;17.20;;;10.80;99.90;;;;;;6184207;23;20084;-79
2021/11/25 21:21:44;;;;;;;23.17;17.42;;;10.70;99.90;;;;;;6183938;23;20064;-80
2021/11/25 21:24:12;;;;;;;24.23;19.10;;;10.70;99.90;;;;;;6160770;23;20016;-82
2021/11/25 21:26:40;;;;;;;21.70;17.27;;;10.70;99.90;;;;;;6183676;23;20004;-80
2021/11/25 21:29:09;;;;;;;21.10;17.73;;;10.70;99.90;;;;;;6181579;23;20035;-78
2021/11/25 21:31:37;;;;;;;22.70;16.65;;;10.80;99.90;;;;;;6182884;23;20119;-79
2021/11/25 21:34:03;;;;;;;20.10;16.85;;;10.80;99.90;;;;;;6184415;23;20525;-80
2021/11/25 21:36:32;;;;;;;19.33;15.93;;;10.90;99.90;;;;;;6183259;23;20444;-79
2021/11/25 21:38:58;;;;;;;15.30;13.57;;;10.90;99.90;;;;;;6182489;23;20013;-79
2021/11/25 21:41:24;;;;;;;16.40;13.60;;;11.00;99.90;;;;;;6183562;23;19997;-79
2021/11/25 21:43:50;;;;;;;16.08;14.32;;;11.00;99.90;;;;;;6156479;23;20039;-81
2021/11/25 21:46:16;;;;;;;15.15;13.55;;;11.00;99.90;;;;;;6183107;23;20417;-79
2021/11/25 21:48:43;;;;;;;15.52;13.90;;;11.10;99.90;;;;;;6182058;23;20456;-80
2021/11/25 21:51:10;;;;;;;19.77;15.00;;;11.00;99.90;;;;;;6183330;23;19997;-80
2021/11/25 21:53:36;;;;;;;18.02;14.40;;;11.00;99.90;;;;;;6156517;23;20013;-78
2021/11/25 21:56:03;;;;;;;17.17;15.32;;;11.10;99.90;;;;;;6183711;23;20001;-79
2021/11/25 21:58:29;;;;;;;22.67;16.52;;;11.00;99.90;;;;;;6156911;23;20084;-79
2021/11/25 22:00:55;;;;;;;18.50;15.32;;;11.00;99.90;;;;;;6183229;23;20036;-79
2021/11/25 22:03:21;;;;;;;19.15;15.90;;;11.00;99.90;;;;;;6182982;23;20013;-79
2021/11/25 22:05:46;;;;;;;15.60;13.95;;;11.00;99.90;;;;;;6184549;23;20020;-80
2021/11/25 22:08:15;;;;;;;16.17;14.48;;;11.10;99.90;;;;;;6156443;23;20452;-81
2021/11/25 22:10:41;;;;;;;16.92;14.18;;;11.10;99.90;;;;;;6183833;23;20001;-80
2021/11/25 22:13:07;;;;;;;17.02;13.65;;;11.10;99.90;;;;;;6157085;23;20005;-81
2021/11/25 22:15:33;;;;;;;16.10;13.85;;;11.10;99.90;;;;;;6184004;23;20044;-80
2021/11/25 22:17:59;;;;;;;15.07;13.50;;;11.10;99.90;;;;;;6182883;23;20005;-78
2021/11/25 22:20:46;;;;;;;13.77;12.27;;;11.10;99.90;;;;;;6182889;23;20005;-80
2021/11/25 22:25:56;;;;;;;13.90;12.38;;;11.20;99.90;;;;;;6183756;23;20012;-82
2021/11/25 22:28:22;;;;;;;16.13;12.80;;;11.30;99.90;;;;;;6183971;23;20336;-81
2021/11/25 22:30:48;;;;;;;16.67;13.27;;;11.30;99.90;;;;;;6182644;23;19997;-79
2021/11/25 22:33:14;;;;;;;16.10;12.88;;;11.30;99.90;;;;;;6182539;23;20039;-79
2021/11/25 22:35:40;;;;;;;14.30;12.77;;;11.30;99.90;;;;;;6183555;23;20001;-80
2021/11/25 22:38:06;;;;;;;18.75;13.27;;;11.30;99.90;;;;;;6184098;23;20032;-80
2021/11/25 22:40:33;;;;;;;14.10;12.13;;;11.30;99.90;;;;;;6157410;23;20001;-80
2021/11/25 22:43:01;;;;;;;16.25;12.18;;;11.30;99.90;;;;;;6182360;23;20005;-79
2021/11/25 22:45:27;;;;;;;13.70;12.32;;;11.30;99.90;;;;;;6182343;23;20453;-79
2021/11/25 22:47:53;;;;;;;14.63;12.93;;;11.30;99.90;;;;;;6156579;23;20252;-79
2021/11/25 22:50:20;;;;;;;16.45;13.18;;;11.30;99.90;;;;;;6183010;23;20333;-79
2021/11/25 22:52:49;;;;;;;14.02;12.35;;;11.30;99.90;;;;;;6182786;23;20001;-79
2021/11/25 22:55:15;;;;;;;17.00;12.40;;;11.30;99.90;;;;;;6183439;23;20001;-81
2021/11/25 22:57:41;;;;;;;13.52;12.15;;;11.30;99.90;;;;;;6183105;23;20005;-81
2021/11/25 23:00:08;;;;;;;12.57;11.27;;;11.40;99.90;;;;;;6183000;23;20096;-83
2021/11/25 23:02:34;;;;;;;13.63;11.63;;;11.40;99.90;;;;;;6182381;23;20437;-83
2021/11/25 23:05:00;;;;;;;12.30;10.82;;;11.40;99.90;;;;;;6157053;23;20008;-82
2021/11/25 23:07:27;;;;;;;12.55;10.90;;;11.40;99.90;;;;;;6153273;23;20013;-82
2021/11/25 23:09:56;;;;;;;12.75;11.30;;;11.50;99.90;;;;;;6183617;23;20101;-83
2021/11/25 23:12:22;;;;;;;11.75;10.55;;;11.40;99.90;;;;;;6183424;23;20463;-81
2021/11/25 23:14:48;;;;;;;14.68;11.00;;;11.40;99.90;;;;;;6158579;23;20005;-81
2021/11/25 23:17:14;;;;;;;11.23;10.13;;;11.40;99.90;;;;;;6157852;23;20001;-82
2021/11/25 23:19:39;;;;;;;11.73;10.38;;;11.40;99.90;;;;;;6159003;23;20001;-82
2021/11/25 23:22:05;;;;;;;15.63;11.52;;;11.50;99.90;;;;;;6183984;23;20033;-82
2021/11/25 23:24:31;;;;;;;14.18;11.20;;;11.50;99.90;;;;;;6158674;23;20009;-81
2021/11/25 23:26:56;;;;;;;12.45;10.65;;;11.50;99.90;;;;;;6184522;23;20008;-82
2021/11/25 23:29:22;;;;;;;13.50;10.40;;;11.50;99.90;;;;;;6184699;23;20001;-82
2021/11/25 23:31:49;;;;;;;16.67;11.05;;;11.50;99.90;;;;;;6158034;23;20013;-82
2021/11/25 23:34:14;;;;;;;14.05;10.73;;;11.40;99.90;;;;;;6159697;23;20028;-81
2021/11/25 23:36:40;;;;;;;13.77;11.52;;;11.50;99.90;;;;;;6158192;23;20005;-82
2021/11/25 23:39:06;;;;;;;13.73;10.88;;;11.40;99.90;;;;;;6159252;23;20016;-82
2021/11/25 23:41:32;;;;;;;12.68;11.27;;;11.40;99.90;;;;;;6184316;23;20432;-81
2021/11/25 23:43:58;;;;;;;15.43;11.15;;;11.40;99.90;;;;;;6184698;23;20005;-81
2021/11/25 23:46:27;;;;;;;11.70;10.50;;;11.30;99.90;;;;;;6157700;23;20008;-81
2021/11/25 23:48:58;;;;;;;13.00;10.73;;;11.30;99.90;;;;;;6158474;23;20389;-81
2021/11/25 23:51:25;;;;;;;11.63;10.50;;;11.30;99.90;;;;;;6158041;23;20029;-81
2021/11/25 23:53:51;;;;;;;12.57;10.45;;;11.30;99.90;;;;;;6185010;23;20599;-82
2021/11/25 23:56:19;;;;;;;14.20;11.27;;;11.30;99.90;;;;;;6158362;23;20008;-85
2021/11/25 23:58:45;;;;;;;14.65;11.48;;;11.30;99.90;;;;;;6158391;23;20463;-83
